sensor_id;sensor_type;location;lat;lon;timestamp;pressure;altitude;pressure_sealevel;temperature;humidity
50250;BME280;36133;42.522;27.456;2023-03-25T00:00:16;101140.59;;;12.79;54.41
50250;BME280;36133;42.522;27.456;2023-03-25T00:02:50;101150.94;;;12.90;54.45
50250;BME280;36133;42.522;27.456;2023-03-25T00:05:20;101098.28;;;12.42;54.36
50250;BME280;36133;42.522;27.456;2023-03-25T00:07:48;100657.72;;;9.69;54.64
50250;BME280;36133;42.522;27.456;2023-03-25T00:10:15;100617.69;;;9.44;54.50
50250;BME280;36133;42.522;27.456;2023-03-25T00:12:41;100605.03;;;9.06;56.12
50250;BME280;36133;42.522;27.456;2023-03-25T00:15:11;101208.59;;;12.99;56.01
50250;BME280;36133;42.522;27.456;2023-03-25T00:17:38;100750.22;;;10.31;55.70
50250;BME280;36133;42.522;27.456;2023-03-25T00:20:05;100897.84;;;11.12;55.98
50250;BME280;36133;42.522;27.456;2023-03-25T00:22:33;100946.78;;;11.17;56.67
50250;BME280;36133;42.522;27.456;2023-03-25T00:25:06;100987.63;;;10.84;58.71
50250;BME280;36133;42.522;27.456;2023-03-25T00:27:32;100891.81;;;10.43;58.46
50250;BME280;36133;42.522;27.456;2023-03-25T00:29:57;101098.56;;;11.43;59.38
50250;BME280;36133;42.522;27.456;2023-03-25T00:32:23;100854.78;;;10.28;57.75
50250;BME280;36133;42.522;27.456;2023-03-25T00:34:48;101184.09;;;12.41;57.96
50250;BME280;36133;42.522;27.456;2023-03-25T00:37:17;101023.53;;;11.08;59.03
50250;BME280;36133;42.522;27.456;2023-03-25T00:39:46;100709.44;;;8.96;59.47
50250;BME280;36133;42.522;27.456;2023-03-25T00:42:15;100660.75;;;8.44;60.42
50250;BME280;36133;42.522;27.456;2023-03-25T00:44:43;101187.31;;;11.40;61.20
50250;BME280;36133;42.522;27.456;2023-03-25T00:47:12;100554.22;;;7.08;62.39
50250;BME280;36133;42.522;27.456;2023-03-25T00:49:42;100535.56;;;7.22;62.41
50250;BME280;36133;42.522;27.456;2023-03-25T00:52:08;100872.84;;;9.12;62.75
50250;BME280;36133;42.522;27.456;2023-03-25T00:54:33;101179.69;;;11.21;62.27
50250;BME280;36133;42.522;27.456;2023-03-25T00:56:59;101053.56;;;10.90;60.33
50250;BME280;36133;42.522;27.456;2023-03-25T00:59:27;100954.41;;;10.61;58.88
50250;BME280;36133;42.522;27.456;2023-03-25T01:01:53;100665.47;;;9.50;57.44
50250;BME280;36133;42.522;27.456;2023-03-25T01:04:22;100618.25;;;8.93;57.52
50250;BME280;36133;42.522;27.456;2023-03-25T01:06:48;100876.75;;;10.25;58.83
50250;BME280;36133;42.522;27.456;2023-03-25T01:09:17;101115.22;;;11.32;59.93
50250;BME280;36133;42.522;27.456;2023-03-25T01:11:45;101156.19;;;11.44;60.35
50250;BME280;36133;42.522;27.456;2023-03-25T01:14:19;101151.53;;;11.90;59.25
50250;BME280;36133;42.522;27.456;2023-03-25T01:16:45;101109.78;;;10.95;60.11
50250;BME280;36133;42.522;27.456;2023-03-25T01:19:12;101154.38;;;10.28;63.22
50250;BME280;36133;42.522;27.456;2023-03-25T01:21:38;101150.13;;;10.34;63.27
50250;BME280;36133;42.522;27.456;2023-03-25T01:24:09;100921.28;;;8.40;64.49
50250;BME280;36133;42.522;27.456;2023-03-25T01:26:42;100513.09;;;6.34;63.25
50250;BME280;36133;42.522;27.456;2023-03-25T01:29:09;101037.31;;;9.19;64.95
50250;BME280;36133;42.522;27.456;2023-03-25T01:31:34;101080.69;;;9.64;64.01
50250;BME280;36133;42.522;27.456;2023-03-25T01:34:00;101032.16;;;9.64;62.54
50250;BME280;36133;42.522;27.456;2023-03-25T01:36:25;100807.25;;;8.41;62.21
50250;BME280;36133;42.522;27.456;2023-03-25T01:38:54;101108.75;;;10.96;59.93
50250;BME280;36133;42.522;27.456;2023-03-25T01:41:21;101047.13;;;11.14;58.48
50250;BME280;36133;42.522;27.456;2023-03-25T01:44:01;101088.72;;;11.65;57.31
50250;BME280;36133;42.522;27.456;2023-03-25T01:46:27;101088.28;;;11.91;56.79
50250;BME280;36133;42.522;27.456;2023-03-25T01:48:53;101046.28;;;11.81;56.42
50250;BME280;36133;42.522;27.456;2023-03-25T01:51:26;100971.56;;;11.50;56.18
50250;BME280;36133;42.522;27.456;2023-03-25T01:53:53;100840.16;;;10.61;56.04
50250;BME280;36133;42.522;27.456;2023-03-25T01:56:23;101092.75;;;11.84;56.51
50250;BME280;36133;42.522;27.456;2023-03-25T01:58:51;100779.66;;;9.26;57.89
50250;BME280;36133;42.522;27.456;2023-03-25T02:01:18;101120.28;;;10.67;59.60
50250;BME280;36133;42.522;27.456;2023-03-25T02:03:48;101136.56;;;11.04;59.30
50250;BME280;36133;42.522;27.456;2023-03-25T02:06:20;100673.06;;;8.77;57.60
50250;BME280;36133;42.522;27.456;2023-03-25T02:08:52;100594.09;;;8.85;56.28
50250;BME280;36133;42.522;27.456;2023-03-25T02:11:19;101005.28;;;11.25;56.71
50250;BME280;36133;42.522;27.456;2023-03-25T02:13:45;100860.53;;;10.63;55.97
50250;BME280;36133;42.522;27.456;2023-03-25T02:19:11;101020.97;;;11.73;55.57
50250;BME280;36133;42.522;27.456;2023-03-25T02:27:59;101096.66;;;12.26;55.65
50250;BME280;36133;42.522;27.456;2023-03-25T02:35:29;100947.69;;;11.09;56.05
50250;BME280;36133;42.522;27.456;2023-03-25T02:38:22;101056.13;;;11.59;56.20
50250;BME280;36133;42.522;27.456;2023-03-25T02:45:53;101095.06;;;10.74;59.43
50250;BME280;36133;42.522;27.456;2023-03-25T02:48:24;100960.91;;;9.98;59.21
50250;BME280;36133;42.522;27.456;2023-03-25T02:50:57;101059.28;;;11.48;56.95
50250;BME280;36133;42.522;27.456;2023-03-25T02:53:28;100538.28;;;8.25;57.21
50250;BME280;36133;42.522;27.456;2023-03-25T02:55:59;100979.22;;;11.47;55.51
50250;BME280;36133;42.522;27.456;2023-03-25T02:58:27;100635.81;;;9.35;54.83
50250;BME280;36133;42.522;27.456;2023-03-25T03:00:54;101024.97;;;11.63;55.38
50250;BME280;36133;42.522;27.456;2023-03-25T03:03:24;101076.53;;;11.47;56.30
50250;BME280;36133;42.522;27.456;2023-03-25T03:05:52;101012.91;;;10.92;56.80
50250;BME280;36133;42.522;27.456;2023-03-25T03:11:10;100821.50;;;10.13;56.17
50250;BME280;36133;42.522;27.456;2023-03-25T03:14:10;101070.41;;;10.54;58.30
50250;BME280;36133;42.522;27.456;2023-03-25T03:17:15;101032.56;;;10.77;57.27
50250;BME280;36133;42.522;27.456;2023-03-25T03:27:50;101042.19;;;9.87;62.29
50250;BME280;36133;42.522;27.456;2023-03-25T03:30:29;101073.63;;;10.50;59.92
50250;BME280;36133;42.522;27.456;2023-03-25T03:33:34;100917.25;;;9.24;60.89
50250;BME280;36133;42.522;27.456;2023-03-25T03:35:54;100748.47;;;7.65;63.52
50250;BME280;36133;42.522;27.456;2023-03-25T03:38:26;100963.13;;;8.84;63.65
50250;BME280;36133;42.522;27.456;2023-03-25T03:40:55;101047.19;;;9.59;63.29
50250;BME280;36133;42.522;27.456;2023-03-25T03:43:35;101043.81;;;10.04;62.39
50250;BME280;36133;42.522;27.456;2023-03-25T03:46:11;100891.81;;;8.47;65.50
50250;BME280;36133;42.522;27.456;2023-03-25T03:48:44;101046.91;;;9.37;67.00
50250;BME280;36133;42.522;27.456;2023-03-25T03:51:18;101029.75;;;9.86;66.03
50250;BME280;36133;42.522;27.456;2023-03-25T03:56:54;101071.94;;;9.71;67.86
50250;BME280;36133;42.522;27.456;2023-03-25T03:59:39;100845.59;;;8.35;68.36
50250;BME280;36133;42.522;27.456;2023-03-25T04:02:23;101069.91;;;10.51;65.15
50250;BME280;36133;42.522;27.456;2023-03-25T04:04:51;100986.91;;;9.44;66.60
50250;BME280;36133;42.522;27.456;2023-03-25T04:07:22;100494.66;;;6.96;64.19
50250;BME280;36133;42.522;27.456;2023-03-25T04:12:24;101036.63;;;10.59;64.33
50250;BME280;36133;42.522;27.456;2023-03-25T04:14:52;100844.41;;;9.09;65.40
50250;BME280;36133;42.522;27.456;2023-03-25T04:17:17;100828.56;;;8.67;66.93
50250;BME280;36133;42.522;27.456;2023-03-25T04:19:43;101081.34;;;9.83;66.84
50250;BME280;36133;42.522;27.456;2023-03-25T04:22:15;100923.78;;;9.38;65.59
50250;BME280;36133;42.522;27.456;2023-03-25T04:24:41;101063.47;;;10.21;65.21
50250;BME280;36133;42.522;27.456;2023-03-25T04:27:08;100840.84;;;9.17;64.28
50250;BME280;36133;42.522;27.456;2023-03-25T04:29:38;100444.28;;;7.14;62.88
50250;BME280;36133;42.522;27.456;2023-03-25T04:32:05;100639.56;;;7.93;63.74
50250;BME280;36133;42.522;27.456;2023-03-25T04:34:31;101087.09;;;9.72;66.84
50250;BME280;36133;42.522;27.456;2023-03-25T04:36:56;100957.53;;;9.65;65.11
50250;BME280;36133;42.522;27.456;2023-03-25T04:39:23;100851.13;;;8.26;66.59
50250;BME280;36133;42.522;27.456;2023-03-25T04:41:49;100571.09;;;7.65;64.48
50250;BME280;36133;42.522;27.456;2023-03-25T04:44:16;100801.25;;;8.87;63.69
50250;BME280;36133;42.522;27.456;2023-03-25T04:46:42;101068.31;;;9.94;65.54
50250;BME280;36133;42.522;27.456;2023-03-25T04:49:10;100826.41;;;8.22;65.78
50250;BME280;36133;42.522;27.456;2023-03-25T04:51:41;100309.03;;;4.95;66.59
50250;BME280;36133;42.522;27.456;2023-03-25T04:54:23;101071.59;;;9.74;66.31
50250;BME280;36133;42.522;27.456;2023-03-25T04:56:50;100804.84;;;8.63;65.61
50250;BME280;36133;42.522;27.456;2023-03-25T04:59:17;101062.63;;;10.51;65.06
50250;BME280;36133;42.522;27.456;2023-03-25T05:01:46;100680.56;;;7.96;65.63
50250;BME280;36133;42.522;27.456;2023-03-25T05:04:14;101033.28;;;10.17;65.02
50250;BME280;36133;42.522;27.456;2023-03-25T05:06:44;101042.69;;;9.90;65.75
50250;BME280;36133;42.522;27.456;2023-03-25T05:09:17;101044.59;;;10.13;66.03
50250;BME280;36133;42.522;27.456;2023-03-25T05:11:44;100488.63;;;6.86;64.63
50250;BME280;36133;42.522;27.456;2023-03-25T05:14:12;100688.16;;;8.47;64.30
50250;BME280;36133;42.522;27.456;2023-03-25T05:16:38;100819.88;;;10.04;62.59
50250;BME280;36133;42.522;27.456;2023-03-25T05:19:05;101099.94;;;12.07;61.63
50250;BME280;36133;42.522;27.456;2023-03-25T05:21:32;100478.69;;;7.19;65.12
50250;BME280;36133;42.522;27.456;2023-03-25T05:23:57;101079.47;;;11.22;65.03
50250;BME280;36133;42.522;27.456;2023-03-25T05:26:26;100695.97;;;9.50;62.24
50250;BME280;36133;42.522;27.456;2023-03-25T05:29:02;100927.97;;;10.71;64.10
50250;BME280;36133;42.522;27.456;2023-03-25T05:31:28;100706.94;;;8.95;63.01
50250;BME280;36133;42.522;27.456;2023-03-25T05:33:53;101026.00;;;10.80;64.47
50250;BME280;36133;42.522;27.456;2023-03-25T05:36:19;100842.38;;;9.74;64.03
50250;BME280;36133;42.522;27.456;2023-03-25T05:38:44;100705.47;;;9.15;62.38
50250;BME280;36133;42.522;27.456;2023-03-25T05:41:14;100865.06;;;11.66;57.67
50250;BME280;36133;42.522;27.456;2023-03-25T05:43:45;100845.78;;;11.03;58.78
50250;BME280;36133;42.522;27.456;2023-03-25T05:46:16;100760.44;;;10.94;56.51
50250;BME280;36133;42.522;27.456;2023-03-25T05:48:42;101059.59;;;13.96;54.65
50250;BME280;36133;42.522;27.456;2023-03-25T05:51:13;100440.81;;;9.87;54.33
50250;BME280;36133;42.522;27.456;2023-03-25T05:53:48;100503.31;;;11.74;50.15
50250;BME280;36133;42.522;27.456;2023-03-25T05:56:15;100867.38;;;13.17;52.86
50250;BME280;36133;42.522;27.456;2023-03-25T05:58:48;100539.03;;;10.65;53.48
50250;BME280;36133;42.522;27.456;2023-03-25T06:01:15;100666.03;;;12.34;51.55
50250;BME280;36133;42.522;27.456;2023-03-25T06:03:42;100749.47;;;13.67;50.09
50250;BME280;36133;42.522;27.456;2023-03-25T06:06:12;100485.81;;;11.70;49.17
50250;BME280;36133;42.522;27.456;2023-03-25T06:08:44;100502.13;;;11.84;50.54
50250;BME280;36133;42.522;27.456;2023-03-25T06:11:11;100735.09;;;12.58;52.66
50250;BME280;36133;42.522;27.456;2023-03-25T06:13:43;100852.84;;;14.98;47.03
50250;BME280;36133;42.522;27.456;2023-03-25T06:16:15;100612.34;;;15.64;44.87
50250;BME280;36133;42.522;27.456;2023-03-25T06:18:43;100553.25;;;17.39;42.33
50250;BME280;36133;42.522;27.456;2023-03-25T06:21:09;101019.13;;;22.79;38.75
50250;BME280;36133;42.522;27.456;2023-03-25T06:23:36;100760.00;;;22.18;35.18
50250;BME280;36133;42.522;27.456;2023-03-25T06:26:03;101032.97;;;25.09;35.43
50250;BME280;36133;42.522;27.456;2023-03-25T06:28:29;100913.56;;;25.38;32.77
50250;BME280;36133;42.522;27.456;2023-03-25T06:30:58;101009.09;;;27.52;29.72
50250;BME280;36133;42.522;27.456;2023-03-25T06:33:23;100980.38;;;27.61;29.57
50250;BME280;36133;42.522;27.456;2023-03-25T06:35:49;101031.59;;;26.77;29.39
50250;BME280;36133;42.522;27.456;2023-03-25T06:38:18;101020.84;;;28.15;28.77
50250;BME280;36133;42.522;27.456;2023-03-25T06:40:46;101037.38;;;26.41;28.96
50250;BME280;36133;42.522;27.456;2023-03-25T06:43:12;100987.53;;;23.61;32.34
50250;BME280;36133;42.522;27.456;2023-03-25T06:45:38;101042.06;;;25.05;31.71
50250;BME280;36133;42.522;27.456;2023-03-25T06:48:04;101037.34;;;25.61;31.42
50250;BME280;36133;42.522;27.456;2023-03-25T06:50:30;101068.88;;;21.85;35.95
50250;BME280;36133;42.522;27.456;2023-03-25T06:52:56;101052.66;;;22.49;34.97
50250;BME280;36133;42.522;27.456;2023-03-25T06:55:21;100856.00;;;20.89;35.60
50250;BME280;36133;42.522;27.456;2023-03-25T06:57:54;100568.34;;;19.09;35.17
50250;BME280;36133;42.522;27.456;2023-03-25T07:00:20;100910.44;;;19.49;39.03
50250;BME280;36133;42.522;27.456;2023-03-25T07:02:48;100768.41;;;20.65;35.95
50250;BME280;36133;42.522;27.456;2023-03-25T07:05:14;100945.09;;;21.80;35.55
50250;BME280;36133;42.522;27.456;2023-03-25T07:07:39;100541.31;;;19.13;36.04
50250;BME280;36133;42.522;27.456;2023-03-25T07:10:05;101066.53;;;21.94;36.02
50250;BME280;36133;42.522;27.456;2023-03-25T07:12:33;100772.59;;;20.17;36.55
50250;BME280;36133;42.522;27.456;2023-03-25T07:14:59;100463.13;;;18.83;35.63
50250;BME280;36133;42.522;27.456;2023-03-25T07:17:25;100861.13;;;21.02;35.98
50250;BME280;36133;42.522;27.456;2023-03-25T07:19:50;100536.19;;;18.71;36.39
50250;BME280;36133;42.522;27.456;2023-03-25T07:22:16;100654.91;;;18.87;37.04
50250;BME280;36133;42.522;27.456;2023-03-25T07:24:42;100637.66;;;20.32;35.41
50250;BME280;36133;42.522;27.456;2023-03-25T07:27:12;100821.88;;;22.90;33.29
50250;BME280;36133;42.522;27.456;2023-03-25T07:29:38;101021.94;;;24.01;33.48
50250;BME280;36133;42.522;27.456;2023-03-25T07:32:04;100697.38;;;22.31;33.57
50250;BME280;36133;42.522;27.456;2023-03-25T07:34:32;100915.59;;;23.58;33.72
50250;BME280;36133;42.522;27.456;2023-03-25T07:36:57;100554.72;;;18.29;39.38
50250;BME280;36133;42.522;27.456;2023-03-25T07:39:23;100988.28;;;22.23;37.44
50250;BME280;36133;42.522;27.456;2023-03-25T07:41:53;101051.03;;;23.77;35.37
50250;BME280;36133;42.522;27.456;2023-03-25T07:44:21;101007.47;;;26.38;30.86
50250;BME280;36133;42.522;27.456;2023-03-25T07:46:48;100602.50;;;24.03;30.59
50250;BME280;36133;42.522;27.456;2023-03-25T07:49:15;100851.16;;;26.25;29.68
50250;BME280;36133;42.522;27.456;2023-03-25T07:51:44;101016.13;;;29.10;27.74
50250;BME280;36133;42.522;27.456;2023-03-25T07:54:10;101015.28;;;27.14;29.38
50250;BME280;36133;42.522;27.456;2023-03-25T07:56:36;100780.47;;;25.16;30.04
50250;BME280;36133;42.522;27.456;2023-03-25T07:59:02;100853.78;;;24.37;31.49
50250;BME280;36133;42.522;27.456;2023-03-25T08:01:28;100831.91;;;25.71;29.72
50250;BME280;36133;42.522;27.456;2023-03-25T08:03:53;100828.34;;;26.73;28.12
50250;BME280;36133;42.522;27.456;2023-03-25T08:06:19;100762.00;;;26.34;27.83
50250;BME280;36133;42.522;27.456;2023-03-25T08:08:45;100862.63;;;26.82;28.22
50250;BME280;36133;42.522;27.456;2023-03-25T08:11:11;100566.66;;;22.08;31.97
50250;BME280;36133;42.522;27.456;2023-03-25T08:13:37;100852.53;;;23.72;32.67
50250;BME280;36133;42.522;27.456;2023-03-25T08:16:13;100586.59;;;24.59;29.31
50250;BME280;36133;42.522;27.456;2023-03-25T08:18:39;100720.06;;;22.11;33.16
50250;BME280;36133;42.522;27.456;2023-03-25T08:21:12;100593.78;;;21.57;33.29
50250;BME280;36133;42.522;27.456;2023-03-25T08:23:38;101009.63;;;24.34;33.34
50250;BME280;36133;42.522;27.456;2023-03-25T08:26:04;101005.19;;;25.96;31.13
50250;BME280;36133;42.522;27.456;2023-03-25T08:28:30;100766.56;;;24.10;31.43
50250;BME280;36133;42.522;27.456;2023-03-25T08:30:59;100792.81;;;28.27;26.65
50250;BME280;36133;42.522;27.456;2023-03-25T08:33:27;100569.78;;;24.61;28.95
50250;BME280;36133;42.522;27.456;2023-03-25T08:35:59;100804.88;;;27.42;27.49
50250;BME280;36133;42.522;27.456;2023-03-25T08:38:29;100845.84;;;27.88;27.16
50250;BME280;36133;42.522;27.456;2023-03-25T08:40:59;100989.84;;;27.07;29.01
50250;BME280;36133;42.522;27.456;2023-03-25T08:43:26;100846.75;;;28.02;26.79
50250;BME280;36133;42.522;27.456;2023-03-25T08:45:52;100950.22;;;28.97;26.34
50250;BME280;36133;42.522;27.456;2023-03-25T08:48:17;100962.59;;;28.10;27.66
50250;BME280;36133;42.522;27.456;2023-03-25T08:50:46;100700.38;;;23.70;31.51
50250;BME280;36133;42.522;27.456;2023-03-25T08:53:15;100812.56;;;22.59;34.31
50250;BME280;36133;42.522;27.456;2023-03-25T08:55:40;100531.44;;;23.69;30.33
50250;BME280;36133;42.522;27.456;2023-03-25T08:58:06;100788.97;;;25.34;29.76
50250;BME280;36133;42.522;27.456;2023-03-25T09:00:34;100563.13;;;23.10;31.54
50250;BME280;36133;42.522;27.456;2023-03-25T09:03:03;100945.75;;;25.88;31.35
50250;BME280;36133;42.522;27.456;2023-03-25T09:05:28;100876.16;;;25.71;30.66
50250;BME280;36133;42.522;27.456;2023-03-25T09:07:55;100811.09;;;21.87;35.94
50250;BME280;36133;42.522;27.456;2023-03-25T09:10:23;100440.56;;;18.76;37.84
50250;BME280;36133;42.522;27.456;2023-03-25T09:12:49;100959.44;;;21.82;38.43
50250;BME280;36133;42.522;27.456;2023-03-25T09:15:14;100759.94;;;24.06;33.20
50250;BME280;36133;42.522;27.456;2023-03-25T09:17:43;100751.56;;;25.91;30.06
50250;BME280;36133;42.522;27.456;2023-03-25T09:20:09;100459.59;;;22.79;31.34
50250;BME280;36133;42.522;27.456;2023-03-25T09:22:40;100529.69;;;20.11;36.49
50250;BME280;36133;42.522;27.456;2023-03-25T09:25:12;100614.13;;;19.98;37.86
50250;BME280;36133;42.522;27.456;2023-03-25T09:27:38;100603.06;;;23.94;31.74
50250;BME280;36133;42.522;27.456;2023-03-25T09:30:04;100705.25;;;24.64;31.80
50250;BME280;36133;42.522;27.456;2023-03-25T09:32:30;100510.63;;;24.17;30.54
50250;BME280;36133;42.522;27.456;2023-03-25T09:34:56;100550.03;;;21.50;34.18
50250;BME280;36133;42.522;27.456;2023-03-25T09:37:25;100511.34;;;23.43;32.06
50250;BME280;36133;42.522;27.456;2023-03-25T09:39:51;100697.06;;;24.13;32.92
50250;BME280;36133;42.522;27.456;2023-03-25T09:47:35;100757.34;;;27.30;28.40
50250;BME280;36133;42.522;27.456;2023-03-25T09:50:08;100665.44;;;27.93;26.79
50250;BME280;36133;42.522;27.456;2023-03-25T09:53:00;100657.81;;;27.85;26.82
50250;BME280;36133;42.522;27.456;2023-03-25T10:06:15;100703.25;;;22.44;34.86
50250;BME280;36133;42.522;27.456;2023-03-25T10:11:36;100552.16;;;19.08;39.25
50250;BME280;36133;42.522;27.456;2023-03-25T10:14:52;100564.91;;;21.22;36.26
50250;BME280;36133;42.522;27.456;2023-03-25T10:20:51;100886.94;;;23.59;35.20
50250;BME280;36133;42.522;27.456;2023-03-25T10:26:39;100889.44;;;21.24;39.12
50250;BME280;36133;42.522;27.456;2023-03-25T10:29:12;100394.16;;;19.15;38.70
50250;BME280;36133;42.522;27.456;2023-03-25T10:31:49;100711.13;;;23.71;34.72
50250;BME280;36133;42.522;27.456;2023-03-25T10:34:17;100870.28;;;23.33;36.16
50250;BME280;36133;42.522;27.456;2023-03-25T10:36:53;100407.91;;;18.24;40.24
50250;BME280;36133;42.522;27.456;2023-03-25T10:39:23;100651.00;;;20.24;39.93
50250;BME280;36133;42.522;27.456;2023-03-25T10:42:00;100563.31;;;20.29;38.71
50250;BME280;36133;42.522;27.456;2023-03-25T10:44:27;100615.97;;;21.92;37.53
50250;BME280;36133;42.522;27.456;2023-03-25T10:47:02;100652.41;;;23.96;33.99
50250;BME280;36133;42.522;27.456;2023-03-25T10:49:32;100831.69;;;24.62;34.58
50250;BME280;36133;42.522;27.456;2023-03-25T10:52:01;100557.38;;;20.59;37.57
50250;BME280;36133;42.522;27.456;2023-03-25T10:54:35;100689.81;;;22.11;37.36
50250;BME280;36133;42.522;27.456;2023-03-25T10:57:06;100580.88;;;21.25;37.79
50250;BME280;36133;42.522;27.456;2023-03-25T10:59:37;100250.69;;;17.43;40.54
50250;BME280;36133;42.522;27.456;2023-03-25T11:02:20;100828.13;;;22.11;39.33
50250;BME280;36133;42.522;27.456;2023-03-25T11:04:55;100339.38;;;19.53;38.93
50250;BME280;36133;42.522;27.456;2023-03-25T11:07:49;100641.97;;;21.75;37.75
50250;BME280;36133;42.522;27.456;2023-03-25T11:10:23;100481.50;;;21.71;36.24
50250;BME280;36133;42.522;27.456;2023-03-25T11:12:53;100306.59;;;20.76;36.00
50250;BME280;36133;42.522;27.456;2023-03-25T11:15:29;100373.72;;;20.69;37.26
50250;BME280;36133;42.522;27.456;2023-03-25T11:18:10;100200.47;;;20.03;36.82
50250;BME280;36133;42.522;27.456;2023-03-25T11:20:39;100778.13;;;24.73;35.18
50250;BME280;36133;42.522;27.456;2023-03-25T11:23:25;100601.72;;;23.72;34.87
50250;BME280;36133;42.522;27.456;2023-03-25T11:25:54;100272.31;;;20.79;36.05
50250;BME280;36133;42.522;27.456;2023-03-25T11:28:40;100604.69;;;22.94;35.87
50250;BME280;36133;42.522;27.456;2023-03-25T11:31:15;100741.28;;;22.63;37.97
50250;BME280;36133;42.522;27.456;2023-03-25T11:33:45;100300.88;;;20.14;37.32
50250;BME280;36133;42.522;27.456;2023-03-25T11:36:20;100556.97;;;21.58;37.88
50250;BME280;36133;42.522;27.456;2023-03-25T11:38:52;100230.00;;;19.64;37.84
50250;BME280;36133;42.522;27.456;2023-03-25T11:41:21;100559.31;;;19.76;41.16
50250;BME280;36133;42.522;27.456;2023-03-25T11:43:47;100585.84;;;22.60;36.81
50250;BME280;36133;42.522;27.456;2023-03-25T11:46:16;100562.88;;;23.53;35.74
50250;BME280;36133;42.522;27.456;2023-03-25T11:48:44;100201.53;;;21.49;35.12
50250;BME280;36133;42.522;27.456;2023-03-25T11:51:43;100508.78;;;22.50;36.45
50250;BME280;36133;42.522;27.456;2023-03-25T11:54:13;100560.38;;;22.17;37.54
50250;BME280;36133;42.522;27.456;2023-03-25T11:56:42;100549.56;;;22.78;36.66
50250;BME280;36133;42.522;27.456;2023-03-25T11:59:25;100378.47;;;20.78;38.15
50250;BME280;36133;42.522;27.456;2023-03-25T12:02:02;100524.25;;;20.92;39.69
50250;BME280;36133;42.522;27.456;2023-03-25T12:04:28;100707.72;;;22.56;39.06
50250;BME280;36133;42.522;27.456;2023-03-25T12:06:57;100351.97;;;20.57;38.71
50250;BME280;36133;42.522;27.456;2023-03-25T12:09:30;100161.31;;;18.94;39.70
50250;BME280;36133;42.522;27.456;2023-03-25T12:29:35;100691.09;;;22.40;39.41
50250;BME280;36133;42.522;27.456;2023-03-25T12:38:26;100217.00;;;16.68;45.04
50250;BME280;36133;42.522;27.456;2023-03-25T12:41:52;100228.00;;;19.37;40.46
50250;BME280;36133;42.522;27.456;2023-03-25T12:50:52;100375.63;;;17.93;45.04
50250;BME280;36133;42.522;27.456;2023-03-25T12:53:35;100690.34;;;18.06;49.38
50250;BME280;36133;42.522;27.456;2023-03-25T13:02:43;100676.81;;;17.16;51.26
50250;BME280;36133;42.522;27.456;2023-03-25T13:05:22;100144.50;;;13.67;52.41
50250;BME280;36133;42.522;27.456;2023-03-25T13:08:00;100246.22;;;15.91;49.64
50250;BME280;36133;42.522;27.456;2023-03-25T13:10:37;100097.97;;;13.70;50.36
50250;BME280;36133;42.522;27.456;2023-03-25T13:13:17;100217.44;;;14.07;52.29
50250;BME280;36133;42.522;27.456;2023-03-25T13:15:47;100561.38;;;16.44;51.16
50250;BME280;36133;42.522;27.456;2023-03-25T13:18:21;100130.50;;;14.57;50.48
50250;BME280;36133;42.522;27.456;2023-03-25T13:28:03;100337.69;;;13.76;54.86
50250;BME280;36133;42.522;27.456;2023-03-25T13:30:36;100201.91;;;14.14;53.25
50250;BME280;36133;42.522;27.456;2023-03-25T13:33:29;100096.28;;;12.81;54.26
50250;BME280;36133;42.522;27.456;2023-03-25T13:36:16;100250.91;;;14.01;54.56
50250;BME280;36133;42.522;27.456;2023-03-25T13:38:53;100101.31;;;12.20;56.24
50250;BME280;36133;42.522;27.456;2023-03-25T13:44:07;100078.31;;;11.58;57.62
50250;BME280;36133;42.522;27.456;2023-03-25T13:47:13;100403.59;;;13.38;57.79
50250;BME280;36133;42.522;27.456;2023-03-25T13:50:03;100050.25;;;11.39;57.59
50250;BME280;36133;42.522;27.456;2023-03-25T13:52:38;100297.31;;;13.03;58.22
50250;BME280;36133;42.522;27.456;2023-03-25T13:55:15;100622.47;;;14.87;58.70
50250;BME280;36133;42.522;27.456;2023-03-25T14:13:00;100621.59;;;14.48;59.28
50250;BME280;36133;42.522;27.456;2023-03-25T14:18:47;100616.50;;;14.07;61.14
50250;BME280;36133;42.522;27.456;2023-03-25T14:24:00;100374.06;;;12.31;61.62
50250;BME280;36133;42.522;27.456;2023-03-25T14:33:12;100139.25;;;10.60;62.94
50250;BME280;36133;42.522;27.456;2023-03-25T14:39:45;100607.59;;;13.60;63.58
50250;BME280;36133;42.522;27.456;2023-03-25T14:42:23;100599.22;;;13.55;63.36
50250;BME280;36133;42.522;27.456;2023-03-25T14:48:17;100366.97;;;11.56;64.06
50250;BME280;36133;42.522;27.456;2023-03-25T14:50:49;100605.25;;;13.17;64.89
50250;BME280;36133;42.522;27.456;2023-03-25T14:53:34;100402.38;;;12.28;64.31
50250;BME280;36133;42.522;27.456;2023-03-25T14:56:06;100594.13;;;14.12;62.27
50250;BME280;36133;42.522;27.456;2023-03-25T14:58:37;100199.16;;;11.64;62.94
50250;BME280;36133;42.522;27.456;2023-03-25T15:01:07;100079.94;;;10.93;62.41
50250;BME280;36133;42.522;27.456;2023-03-25T15:03:40;100249.28;;;11.73;63.06
50250;BME280;36133;42.522;27.456;2023-03-25T15:06:17;100393.81;;;13.04;61.21
50250;BME280;36133;42.522;27.456;2023-03-25T15:09:11;100087.06;;;11.53;60.21
50250;BME280;36133;42.522;27.456;2023-03-25T15:12:01;99950.09;;;11.07;59.63
50250;BME280;36133;42.522;27.456;2023-03-25T15:14:41;100603.66;;;14.85;59.34
50250;BME280;36133;42.522;27.456;2023-03-25T15:17:46;100401.16;;;13.68;59.90
50250;BME280;36133;42.522;27.456;2023-03-25T15:23:26;100579.53;;;14.06;61.46
50250;BME280;36133;42.522;27.456;2023-03-25T15:25:54;100395.09;;;13.02;61.18
50250;BME280;36133;42.522;27.456;2023-03-25T15:29:00;100141.94;;;11.34;61.77